TimePST,TemperatureF,Dew PointF,Humidity,Sea Level PressureIn,VisibilityMPH,Wind Direction,Wind SpeedMPH,Gust SpeedMPH,PrecipitationIn,Events,Conditions,WindDirDegrees,DateUTC
12:53 AM,12.9,10.0,88,30.44,0.2,Calm,Calm,-,N/A,Fog,Light Freezing Fog,0,2013-01-21 08:53:00
1:53 AM,15.1,12.0,88,30.44,0.1,Calm,Calm,-,N/A,Fog,Light Freezing Fog,0,2013-01-21 09:53:00
2:53 AM,18.0,14.0,84,30.43,0.1,Calm,Calm,-,N/A,Fog,Light Freezing Fog,0,2013-01-21 10:53:00
3:53 AM,17.1,12.9,84,30.42,0.1,Calm,Calm,-,N/A,Fog,Light Freezing Fog,0,2013-01-21 11:53:00
4:53 AM,18.0,12.9,81,30.42,0.1,Calm,Calm,-,N/A,Fog,Light Freezing Fog,0,2013-01-21 12:53:00
5:53 AM,16.0,12.9,88,30.42,0.1,Calm,Calm,-,N/A,Fog,Light Freezing Fog,0,2013-01-21 13:53:00
6:53 AM,17.1,12.0,81,30.43,0.1,Calm,Calm,-,N/A,Fog,Light Freezing Fog,0,2013-01-21 14:53:00
7:53 AM,18.0,14.0,84,30.43,0.1,Calm,Calm,-,N/A,Fog,Light Freezing Fog,0,2013-01-21 15:53:00
8:53 AM,17.1,12.9,84,30.44,0.1,Calm,Calm,-,N/A,Fog,Light Freezing Fog,0,2013-01-21 16:53:00
9:28 AM,19.4,15.8,86,30.31,0.1,Calm,Calm,-,0.01,Fog,Light Freezing Fog,0,2013-01-21 17:28:00
9:53 AM,19.9,15.1,81,30.43,0.1,Calm,Calm,-,0.01,Fog,Light Freezing Fog,0,2013-01-21 17:53:00
10:53 AM,19.9,16.0,85,30.43,0.1,Calm,Calm,-,N/A,Fog,Light Freezing Fog,0,2013-01-21 18:53:00
11:53 AM,19.0,16.0,88,30.42,0.1,Calm,Calm,-,N/A,Fog,Light Freezing Fog,0,2013-01-21 19:53:00
12:53 PM,19.9,18.0,92,30.39,0.1,Calm,Calm,-,N/A,Fog,Light Freezing Fog,0,2013-01-21 20:53:00
1:45 PM,24.8,19.4,80,30.26,1.0,Calm,Calm,-,N/A,,Mostly Cloudy,0,2013-01-21 21:45:00
1:53 PM,24.1,19.9,84,30.37,1.0,Calm,Calm,-,N/A,,Mostly Cloudy,0,2013-01-21 21:53:00
2:18 PM,24.8,19.4,80,30.25,2.0,Calm,Calm,-,N/A,,Scattered Clouds,0,2013-01-21 22:18:00
2:53 PM,24.1,19.9,84,30.34,2.0,Calm,Calm,-,N/A,,Scattered Clouds,0,2013-01-21 22:53:00
3:53 PM,21.9,18.0,85,30.34,2.0,North,4.6,-,N/A,,Scattered Clouds,360,2013-01-21 23:53:00
4:53 PM,18.0,15.1,88,30.35,2.0,SSW,3.5,-,N/A,,Scattered Clouds,210,2013-01-22 00:53:00
5:15 PM,17.6,12.2,79,30.23,3.0,Calm,Calm,-,N/A,,Scattered Clouds,0,2013-01-22 01:15:00
5:53 PM,12.9,9.0,84,30.36,3.0,SW,3.5,-,N/A,,Scattered Clouds,220,2013-01-22 01:53:00
6:53 PM,10.9,7.0,84,30.36,3.0,WSW,3.5,-,N/A,,Scattered Clouds,250,2013-01-22 02:53:00
7:53 PM,10.9,8.1,88,30.38,3.0,WSW,4.6,-,N/A,,Scattered Clouds,240,2013-01-22 03:53:00
8:53 PM,8.1,3.9,83,30.38,3.0,SSW,5.8,-,N/A,,Scattered Clouds,210,2013-01-22 04:53:00
9:53 PM,7.0,1.9,80,30.37,3.0,Calm,Calm,-,N/A,,Scattered Clouds,0,2013-01-22 05:53:00
10:53 PM,6.1,1.9,83,30.39,3.0,Calm,Calm,-,N/A,,Scattered Clouds,0,2013-01-22 06:53:00
11:53 PM,6.1,1.9,83,30.39,1.0,Calm,Calm,-,N/A,,Overcast,0,2013-01-22 07:53:00